Airfield :







YOU CAN JOIN US ON...

 
LOGIN :

Register | Disclaimer

   EN    FR    IT 

 









Legend :    VFR   Marginal VFR   IFR   Intensive IFR   Very Intensive IFR
Visi :
Ceiling :
>= 8 km
>= 3000ft
5 to 8 km
1000 to 3000 ft
1500m to 5 km
500 to 1000 ft
800 to 1500m
200 to 500 ft
< 800m
< 200 ft
Symbols :   Thunderstorms  Fog  Heavy snow  Heavy precipitations  Wind > 20 kt






- Airport Elevation : 59 ft
- IATA code : PBM


SMJP - J.A. Pengel Int.

CURRENT METAR :
  • 270900Z 00000KT 9999 SCT025 24/22 Q1012 NOSIG

EXPIRED METARs :
  • 270800Z 16001KT 9999 BKN025 24/23 Q1013 NOSIG
  • 270700Z 13002KT CAVOK 24/23 Q1013 NOSIG

TAF TAF SMJP
Valid from the 27 at 06:00 until the 28 at 06:00 UTC


270400Z 2706/2806 10004KT 9999 FEW008 SCT025 TX30/2716Z TN23/2709Z
PROB30
TEMPO 2709/2711 00000KT 3000 BR SCT002
BECMG 2711/2713 09008KT
TEMPO 2717/2722 3000 SHRA/TSRA FEW015CB BKN018
SMPM FIR / South America



MET'MAP, your aeronautical weather chart ! - Copyright ORBIFLY December 2007 - Disclaimer

ORBIFLY MET'MAP TEAM :

Programming & Development : Alexandra Zaïnal
Concept & original design : Baudouin d'Aumeries
Assistance for programming : Marc-Olivier Méhu
Technical & hardware support : Manuel Goepfert

Contact : metmap@orbifly.com




SOURCES & CREDITS :

   NOAA